M I D A S
Marine Information and Data Acquisition System
Tripno 2186 of the Zeeleeuw from 2011-09-20 07:02:04 to 2011-09-20 14:33:28
Back to CruiseResearch ActivitiesStationsMapUnderway DataData graphs

EquipmentUnitsComment
TimeDGPSUTC
LatitudeDGPSDM.mWGS84
LongitudeDGPSDM.mWGS84
HeadingGyrodeg 
SOGDGPSknotsSpeed over ground
COGDGPSdegCourse over ground
DepthEcho soundermeters200 kHz
Missing or incorrect values are displayed as -999
Navigation data collected by the RV Zeeleeuw from 2011-09-20 07:08:50 to 2011-09-20 15:36:53
Time Latitude Longitude Heading SOG COG Depth
2011-09-20 07:09:58 51°13.656 2°55.938 109.7 4.3 291 -999
2011-09-20 07:10:58 51°13.681 2°55.83 106.6 4.1 288 -999
2011-09-20 07:11:58 51°13.693 2°55.741 86.7 1.6 283 -999
2011-09-20 07:12:55 51°13.701 2°55.738 38.5 1.1 23 13.5
2011-09-20 07:13:55 51°13.738 2°55.729 333.3 3.8 331 -999
2011-09-20 07:14:58 51°13.839 2°55.634 333 8.4 333 -999
2011-09-20 07:15:58 51°13.983 2°55.526 336.7 10.3 335 -999
2011-09-20 07:16:57 51°14.141 2°55.406 334 10.8 334 11.9
2011-09-20 07:17:57 51°14.308 2°55.265 331.8 11.9 329 -999
2011-09-20 07:18:56 51°14.479 2°55.108 331.2 12.3 331 11.8
2011-09-20 07:19:54 51°14.651 2°54.935 324.8 12.8 326 12.5
2011-09-20 07:20:54 51°14.822 2°54.742 321.6 12.5 323 12.5
2011-09-20 07:21:54 51°14.989 2°54.545 319.7 12.4 322 11.9
2011-09-20 07:22:54 51°15.173 2°54.397 338.6 12.5 340 10.1
2011-09-20 07:23:54 51°15.372 2°54.337 4.6 12.5 5 10.4
2011-09-20 07:24:54 51°15.578 2°54.402 17.2 12.6 16 10.7
2011-09-20 07:25:54 51°15.778 2°54.505 19.5 12.8 19 11.2
2011-09-20 07:26:54 51°15.978 2°54.581 356.6 12.3 353 11.4
2011-09-20 07:27:54 51°16.179 2°54.524 355.4 12 352 11.7
2011-09-20 07:28:54 51°16.31 2°54.46 325.3 5.2 330 12.3
2011-09-20 07:29:54 51°16.345 2°54.429 298.5 0.7 25 12.2
2011-09-20 07:30:54 51°16.358 2°54.44 306 0.9 32 12.2
2011-09-20 07:31:54 51°16.371 2°54.456 325 0.9 39 12.3
2011-09-20 07:32:54 51°16.385 2°54.471 334.1 1 35 12
2011-09-20 07:33:54 51°16.398 2°54.486 334.2 1 36 12.2
2011-09-20 07:34:54 51°16.412 2°54.501 330.5 1 33 12.1
2011-09-20 07:35:54 51°16.426 2°54.516 326 1 31 12.2
2011-09-20 07:36:54 51°16.451 2°54.511 318.1 3.2 331 12.3
2011-09-20 07:37:54 51°16.526 2°54.377 305.6 9.7 308 12.3
2011-09-20 07:38:54 51°16.632 2°54.138 302.7 11.8 304 12.9
2011-09-20 07:39:54 51°16.734 2°53.86 298.2 12.3 300 11.9
2011-09-20 07:40:54 51°16.839 2°53.585 299.1 12.2 300 12.1
2011-09-20 07:41:54 51°16.948 2°53.313 301.2 11.9 302 8.9
2011-09-20 07:42:54 51°17.05 2°53.038 302 12.2 303 9.5
2011-09-20 07:43:54 51°17.153 2°52.758 299.4 12.3 301 10.7
2011-09-20 07:44:54 51°17.262 2°52.483 301.8 12.3 304 11.2
2011-09-20 07:45:54 51°17.39 2°52.228 312.8 12.3 315 12.2
2011-09-20 07:46:54 51°17.538 2°52.002 318.7 12.4 319 11.3
2011-09-20 07:47:54 51°17.692 2°51.781 314.7 12.3 315 10.9
2011-09-20 07:48:54 51°17.844 2°51.561 321.2 12.3 321 11.2
2011-09-20 07:49:54 51°18.009 2°51.365 323.5 12.4 326 11.8
2011-09-20 07:50:54 51°18.182 2°51.182 326.7 12.5 327 13.6
2011-09-20 07:51:54 51°18.332 2°51.021 326 8.9 329 14.5
2011-09-20 07:52:54 51°18.435 2°51.005 12.3 5 9 14.3
2011-09-20 07:53:54 51°18.5 2°51.018 359.6 2.3 7 14.7
2011-09-20 07:54:54 51°18.512 2°51.026 17.3 0.5 23 14.9
2011-09-20 07:55:54 51°18.523 2°51.039 16.9 1.1 38 15.1
2011-09-20 07:56:54 51°18.542 2°51.053 5.2 1.3 16 14.3
2011-09-20 07:57:54 51°18.561 2°51.065 350.7 1.2 18 14.9
2011-09-20 07:58:54 51°18.58 2°51.072 340.2 1 13 14.9
2011-09-20 07:59:54 51°18.601 2°51.078 336.8 2.5 353 14.7
2011-09-20 08:00:54 51°18.666 2°51.135 55.8 6.7 52 14.7
2011-09-20 08:01:54 51°18.727 2°51.372 71.4 11.8 68 14.8
2011-09-20 08:02:54 51°18.808 2°51.673 68.3 12.5 65 14.6
2011-09-20 08:03:54 51°18.887 2°51.978 70.3 12.3 68 14.3
2011-09-20 08:04:54 51°18.962 2°52.286 71.1 12.4 69 13.8
2011-09-20 08:05:54 51°19.037 2°52.593 69.9 12.5 67 13.6
2011-09-20 08:06:54 51°19.12 2°52.895 71.2 12.5 67 13.3
2011-09-20 08:07:54 51°19.198 2°53.201 71.2 12.1 69 13
2011-09-20 08:08:54 51°19.27 2°53.504 70.3 12.2 68 13
2011-09-20 08:09:54 51°19.347 2°53.809 69.5 12.8 66 13
2011-09-20 08:10:54 51°19.429 2°54.107 67.8 12.4 64 12.8
2011-09-20 08:11:54 51°19.514 2°54.405 64.4 12.3 62 12.8
2011-09-20 08:12:54 51°19.597 2°54.704 69.5 12 70 12.9
2011-09-20 08:13:54 51°19.673 2°55.004 70.6 12.1 70 12.8
2011-09-20 08:14:54 51°19.748 2°55.307 68.8 12.4 66 13
2011-09-20 08:15:54 51°19.821 2°55.611 72.3 12.4 73 13
2011-09-20 08:16:54 51°19.885 2°55.919 73.3 12.2 75 12.8
2011-09-20 08:17:54 51°19.93 2°56.238 79 12.3 77 12.6
2011-09-20 08:18:54 51°19.974 2°56.554 77.3 12.1 74 12.4
2011-09-20 08:19:54 51°20.021 2°56.867 77 11.9 77 12.2
2011-09-20 08:20:54 51°20.069 2°57.182 78.8 11.9 78 12
2011-09-20 08:21:54 51°20.119 2°57.495 77.7 12.2 77 12
2011-09-20 08:22:54 51°20.165 2°57.805 76.8 11.9 75 11.7
2011-09-20 08:23:54 51°20.223 2°58.111 76.4 12 74 11.8
2011-09-20 08:24:54 51°20.277 2°58.425 78.7 12 79 11.6
2011-09-20 08:25:54 51°20.329 2°58.732 74.1 12.1 73 11.4
2011-09-20 08:26:54 51°20.386 2°59.035 74.6 11.9 73 11.2
2011-09-20 08:27:54 51°20.429 2°59.349 78.9 12.1 78 11
2011-09-20 08:28:54 51°20.476 2°59.662 76.3 11.9 75 11.1
2011-09-20 08:29:54 51°20.539 2°59.965 71.9 12 71 10.9
2011-09-20 08:30:54 51°20.582 3°0.275 78.5 12.2 76 11
2011-09-20 08:31:54 51°20.631 3°0.583 76.9 11.8 77 10.9
2011-09-20 08:32:54 51°20.68 3°0.892 75.4 11.9 74 10.9
2011-09-20 08:33:54 51°20.735 3°1.196 73.4 11.8 74 10.7
2011-09-20 08:34:54 51°20.784 3°1.5 72.4 11.8 75 10.3
2011-09-20 08:35:54 51°20.835 3°1.804 73.7 11.8 72 10.4
2011-09-20 08:36:54 51°20.883 3°2.106 77.6 11.9 76 10.5
2011-09-20 08:37:54 51°20.93 3°2.412 74.3 11.7 75 10.7
2011-09-20 08:38:54 51°20.978 3°2.721 77.3 11.9 77 10.7
2011-09-20 08:39:54 51°21.023 3°3.026 74.5 11.7 73 10.7
2011-09-20 08:40:54 51°21.078 3°3.326 78 11.7 76 10.8
2011-09-20 08:41:54 51°21.121 3°3.632 77.1 11.8 75 10.8
2011-09-20 08:42:54 51°21.182 3°3.929 73.4 11.7 73 10.5
2011-09-20 08:43:54 51°21.254 3°4.217 70.6 11.5 70 10.7
2011-09-20 08:44:54 51°21.324 3°4.503 66.6 11.7 66 10.7
2011-09-20 08:45:54 51°21.408 3°4.779 68.7 11.7 67 10.7
2011-09-20 08:46:54 51°21.481 3°5.066 68 11.7 66 10.8
2011-09-20 08:47:54 51°21.558 3°5.352 69.5 11.7 69 10.8
2011-09-20 08:48:54 51°21.643 3°5.634 64 11.8 62 10.9
2011-09-20 08:49:54 51°21.724 3°5.919 68.7 12 67 11.1
2011-09-20 08:50:54 51°21.792 3°6.21 71.5 11.7 70 11
2011-09-20 08:51:54 51°21.852 3°6.504 75.5 11.8 73 11.2
2011-09-20 08:52:54 51°21.905 3°6.802 75.6 11.8 73 11.7
2011-09-20 08:53:54 51°21.958 3°7.1 78.1 11.8 76 12
2011-09-20 08:54:54 51°22.016 3°7.397 72.5 11.7 74 12.1
2011-09-20 08:55:54 51°22.047 3°7.7 83.9 11.8 83 12.2
2011-09-20 08:56:54 51°22.066 3°8.006 84.9 11.5 85 11.7
2011-09-20 08:57:54 51°22.08 3°8.314 83.9 11.4 84 11.9
2011-09-20 08:58:54 51°22.101 3°8.616 82.8 11.4 83 12.3
2011-09-20 08:59:54 51°22.129 3°8.92 83.5 11.4 84 12.6
2011-09-20 09:00:54 51°22.155 3°9.222 79.1 11.3 77 12.7
2011-09-20 09:01:54 51°22.219 3°9.506 73.7 11.4 73 13.1
2011-09-20 09:02:54 51°22.277 3°9.802 77 11.8 74 13.7
2011-09-20 09:03:54 51°22.314 3°10.105 79.2 11.8 79 14.3
2011-09-20 09:04:54 51°22.356 3°10.403 77.5 11.6 75 18.1
2011-09-20 09:05:54 51°22.397 3°10.704 78.6 11.4 79 16.6
2011-09-20 09:06:54 51°22.441 3°10.995 77.1 11.2 76 15.5
2011-09-20 09:07:54 51°22.474 3°11.296 81.4 11.5 80 15.7
2011-09-20 09:08:54 51°22.509 3°11.596 82.5 11.6 81 15.2
2011-09-20 09:09:54 51°22.531 3°11.899 83.8 11.5 83 14.6
2011-09-20 09:10:54 51°22.559 3°12.182 81.4 9.2 82 14.2
2011-09-20 09:11:54 51°22.578 3°12.4 84.3 7.9 85 14
2011-09-20 09:12:54 51°22.578 3°12.599 93.4 6.3 91 13.6
2011-09-20 09:13:54 51°22.57 3°12.73 93 4.2 93 13.4
2011-09-20 09:14:54 51°22.575 3°12.822 84.3 3.1 79 13
2011-09-20 09:15:54 51°22.585 3°12.893 83.1 2.6 77 12.8
2011-09-20 09:16:54 51°22.595 3°12.967 85.9 3 80 12.6
2011-09-20 09:17:54 51°22.6 3°13.046 89.1 3 86 12.4
2011-09-20 09:18:54 51°22.604 3°13.127 88.6 3.1 85 12.3
2011-09-20 09:19:54 51°22.608 3°13.199 92.2 1.7 81 12
2011-09-20 09:20:54 51°22.618 3°13.207 64.7 1.2 20 12
2011-09-20 09:21:54 51°22.655 3°13.206 8.6 1.9 336 11.9
2011-09-20 09:22:54 51°22.672 3°13.182 343 1.3 310 11.9
2011-09-20 09:23:54 51°22.682 3°13.158 328.2 1 309 12
2011-09-20 09:24:54 51°22.689 3°13.137 327.4 0.8 291 12.3
2011-09-20 09:25:54 51°22.695 3°13.119 332 0.7 297 11.7
2011-09-20 09:26:54 51°22.7 3°13.104 339.4 0.8 309 12.2
2011-09-20 09:27:54 51°22.738 3°13.065 337.5 5.2 327 12
2011-09-20 09:28:54 51°22.869 3°12.976 348.7 10.5 344 11.7
2011-09-20 09:29:54 51°23.055 3°12.9 352.2 11.5 346 11
2011-09-20 09:30:54 51°23.232 3°12.834 355 10.6 350 11.3
2011-09-20 09:31:54 51°23.404 3°12.792 0.2 10.3 354 11.2
2011-09-20 09:32:54 51°23.574 3°12.77 2.3 10.4 354 11.2
2011-09-20 09:33:54 51°23.746 3°12.743 1.2 10.4 354 11.6
2011-09-20 09:34:54 51°23.919 3°12.707 358.3 10.6 352 12
2011-09-20 09:35:54 51°24.098 3°12.675 0.2 11.3 355 14.9
2011-09-20 09:36:54 51°24.295 3°12.636 358.3 12.4 350 18.5
2011-09-20 09:37:54 51°24.463 3°12.435 309.8 13.2 304 17.6
2011-09-20 09:38:54 51°24.535 3°12.098 282 13.5 281 16.2
2011-09-20 09:39:54 51°24.552 3°11.742 269.7 13.4 271 15.9
2011-09-20 09:40:54 51°24.558 3°11.386 272.6 13.3 273 14
2011-09-20 09:41:54 51°24.57 3°11.035 272.2 13.2 274 13.2
2011-09-20 09:42:54 51°24.59 3°10.684 272.3 13.3 272 12.1
2011-09-20 09:43:54 51°24.601 3°10.332 274.7 13.3 276 10.9
2011-09-20 09:44:54 51°24.617 3°9.982 271.7 13.2 273 10.4
2011-09-20 09:45:54 51°24.637 3°9.633 276.5 13.2 277 9.7
2011-09-20 09:46:54 51°24.663 3°9.286 274.8 13.1 276 9.3
2011-09-20 09:47:54 51°24.679 3°8.939 273.8 13.1 276 9.4
2011-09-20 09:48:54 51°24.713 3°8.596 278.5 13 281 9.4
2011-09-20 09:49:54 51°24.765 3°8.261 283.9 13 285 9.6
2011-09-20 09:50:54 51°24.806 3°7.921 279 13 282 9.9
2011-09-20 09:51:54 51°24.867 3°7.588 290.4 13 291 9.8
2011-09-20 09:52:54 51°25.002 3°7.328 327.4 12.8 329 9.1
2011-09-20 09:53:54 51°25.202 3°7.261 4.8 12.5 1 9
2011-09-20 09:54:54 51°25.405 3°7.321 24 12.4 25 9.2
2011-09-20 09:55:54 51°25.583 3°7.482 37.3 12.3 32 9.3
2011-09-20 09:56:54 51°25.75 3°7.673 36.7 12.4 34 9.2
2011-09-20 09:57:54 51°25.916 3°7.867 37.5 12.3 31 8.8
2011-09-20 09:58:54 51°26.085 3°8.055 36.8 12.4 34 8.9
2011-09-20 09:59:54 51°26.252 3°8.24 37 11.1 33 9.4
2011-09-20 10:00:54 51°26.365 3°8.335 25.6 5.8 23 10
2011-09-20 10:01:54 51°26.436 3°8.347 340.9 3.7 345 10.2
2011-09-20 10:02:54 51°26.475 3°8.322 325.4 1.4 349 10.1
2011-09-20 10:03:54 51°26.49 3°8.325 328 0.8 12 9.8
2011-09-20 10:04:54 51°26.503 3°8.33 331 0.9 20 9.4
2011-09-20 10:05:54 51°26.514 3°8.337 330.9 0.9 27 9.6
2011-09-20 10:06:54 51°26.526 3°8.346 334.5 0.7 24 9.7
2011-09-20 10:07:54 51°26.536 3°8.355 335.4 0.6 30 9.6
2011-09-20 10:08:54 51°26.544 3°8.364 338.3 0.7 36 9.8
2011-09-20 10:09:54 51°26.571 3°8.354 324.8 4.2 328 9.6
2011-09-20 10:10:54 51°26.685 3°8.194 315.1 11.5 315 9.8
2011-09-20 10:11:54 51°26.817 3°7.947 308 12.4 308 10.6
2011-09-20 10:12:54 51°26.914 3°7.662 289.7 12.3 289 10.7
2011-09-20 10:13:54 51°26.991 3°7.357 292.3 12.4 294 11.4
2011-09-20 10:14:54 51°27.086 3°7.06 299.1 12.4 299 11.5
2011-09-20 10:15:54 51°27.186 3°6.771 299.1 12.3 300 12.3
2011-09-20 10:16:54 51°27.289 3°6.482 298.5 12.4 299 12.8
2011-09-20 10:17:54 51°27.382 3°6.187 296.3 12.5 297 13.5
2011-09-20 10:18:54 51°27.482 3°5.897 300.3 12.5 301 13.7
2011-09-20 10:19:54 51°27.583 3°5.605 296.9 12.5 296 14.2
2011-09-20 10:20:54 51°27.679 3°5.312 298.4 12.4 299 14.8
2011-09-20 10:21:54 51°27.778 3°5.018 297.7 12.6 298 13.7
2011-09-20 10:22:54 51°27.872 3°4.724 295.6 12.5 296 14.1
2011-09-20 10:23:54 51°27.966 3°4.426 295.9 12.5 297 15.9
2011-09-20 10:24:54 51°28.061 3°4.129 296.2 12.5 297 18
2011-09-20 10:25:54 51°28.149 3°3.83 295.1 12.4 295 19.9
2011-09-20 10:26:54 51°28.241 3°3.543 298.5 10.2 298 21.6
2011-09-20 10:27:54 51°28.277 3°3.412 292.1 2.6 296 21.6
2011-09-20 10:28:54 51°28.288 3°3.394 319.5 0.3 18 22.2
2011-09-20 10:29:54 51°28.295 3°3.397 336.9 0.6 25 22
2011-09-20 10:30:54 51°28.302 3°3.4 339.8 0.3 2 21.9
2011-09-20 10:31:54 51°28.307 3°3.403 335.8 0.3 18 21.7
2011-09-20 10:32:54 51°28.311 3°3.406 330.1 0.3 17 22
2011-09-20 10:33:54 51°28.315 3°3.409 324.2 0.3 38 22.1
2011-09-20 10:34:54 51°28.32 3°3.411 322.5 0.6 338 21.8
2011-09-20 10:35:54 51°28.353 3°3.341 294.7 6 292 22.2
2011-09-20 10:36:54 51°28.353 3°3.134 264.5 9.7 266 23
2011-09-20 10:37:54 51°28.342 3°2.838 263.6 11.9 263 22.5
2011-09-20 10:38:54 51°28.284 3°2.529 249.6 12.2 250 22.8
2011-09-20 10:39:54 51°28.218 3°2.219 252.2 12.3 252 23.4
2011-09-20 10:40:54 51°28.157 3°1.902 252.7 12.5 253 23
2011-09-20 10:41:54 51°28.1 3°1.58 255.7 12.6 255 23
2011-09-20 10:42:54 51°28.04 3°1.259 252.1 12.7 252 22.3
2011-09-20 10:43:54 51°27.978 3°0.942 252.7 12.4 253 22.3
2011-09-20 10:44:54 51°27.919 3°0.625 253.3 11.9 254 21.4
2011-09-20 10:45:54 51°27.868 3°0.307 255.1 12.4 255 20.6
2011-09-20 10:46:54 51°27.812 2°59.991 251.8 12.2 253 18.6
2011-09-20 10:47:54 51°27.749 2°59.678 252.5 12.4 254 17.9
2011-09-20 10:48:54 51°27.692 2°59.362 253.3 12 255 18.1
2011-09-20 10:49:54 51°27.675 2°59.041 274.9 12.2 276 16.1
2011-09-20 10:50:54 51°27.747 2°58.74 303.5 12.3 301 18.8
2011-09-20 10:51:54 51°27.843 2°58.447 299.1 12.5 296 22.6
2011-09-20 10:52:54 51°27.933 2°58.149 297.4 12.3 296 26
2011-09-20 10:53:54 51°28.002 2°57.84 278.7 12.4 275 29
2011-09-20 10:54:54 51°27.991 2°57.506 265.2 12.5 263 29.6
2011-09-20 10:55:54 51°27.939 2°57.181 252 12.8 252 26
2011-09-20 10:56:54 51°27.875 2°56.86 252.4 12.9 252 28
2011-09-20 10:57:54 51°27.815 2°56.535 254.9 12.7 255 27.3
2011-09-20 10:58:54 51°27.759 2°56.207 255.6 12.8 255 25.8
2011-09-20 10:59:54 51°27.709 2°55.878 257.8 12.6 257 28
2011-09-20 11:00:54 51°27.648 2°55.557 250.1 12.7 250 28.4
2011-09-20 11:01:54 51°27.57 2°55.243 247.9 12.7 249 27.8
2011-09-20 11:02:54 51°27.498 2°54.928 251.7 12.6 253 29
2011-09-20 11:03:54 51°27.434 2°54.608 251.4 12.8 252 28.7
2011-09-20 11:04:54 51°27.36 2°54.295 248.5 12.7 250 26.7
2011-09-20 11:05:54 51°27.286 2°53.981 250.3 12.4 251 23.3
2011-09-20 11:06:54 51°27.214 2°53.665 250.4 12.7 252 24.4
2011-09-20 11:07:54 51°27.168 2°53.336 259.5 12.8 258 28.2
2011-09-20 11:08:54 51°27.122 2°53.005 257.6 12.7 258 26.7
2011-09-20 11:09:54 51°27.072 2°52.678 254.6 12.6 255 24.1
2011-09-20 11:10:54 51°27.017 2°52.354 255.3 12.7 256 24.6
2011-09-20 11:11:54 51°26.958 2°52.033 251.2 12.4 251 24.1
2011-09-20 11:12:54 51°26.886 2°51.716 249.5 12.6 251 22.8
2011-09-20 11:13:54 51°26.82 2°51.397 252.7 12.6 254 22.8
2011-09-20 11:14:54 51°26.76 2°51.077 252.8 12.4 253 24.6
2011-09-20 11:15:54 51°26.688 2°50.76 244.3 12.7 244 22.4
2011-09-20 11:16:54 51°26.593 2°50.456 242.6 12.6 243 22.8
2011-09-20 11:17:54 51°26.5 2°50.151 244.6 12.8 245 22.4
2011-09-20 11:18:54 51°26.415 2°49.841 245.8 12.8 246 22.8
2011-09-20 11:19:54 51°26.33 2°49.532 243.3 12.9 244 23
2011-09-20 11:20:54 51°26.238 2°49.22 246.1 12.9 247 22.9
2011-09-20 11:21:54 51°26.121 2°48.944 222.2 12.5 223 22.8
2011-09-20 11:22:54 51°25.989 2°48.735 243.3 7.3 245 23.1
2011-09-20 11:23:54 51°25.979 2°48.618 278.3 2.9 277 24.2
2011-09-20 11:24:54 51°25.983 2°48.582 307.4 0.5 269 23.3
2011-09-20 11:25:54 51°25.985 2°48.574 319.7 0.3 331 23.2
2011-09-20 11:26:54 51°25.986 2°48.569 326 0.2 292 23.8
2011-09-20 11:27:54 51°25.986 2°48.565 325.3 0.2 336 23.2
2011-09-20 11:28:54 51°25.987 2°48.562 321 0.1 310 23.2
2011-09-20 11:29:54 51°25.986 2°48.559 317.8 0.1 212 24
2011-09-20 11:30:54 51°25.985 2°48.555 317.9 0.3 236 22.8
2011-09-20 11:31:54 51°25.984 2°48.551 315.9 0.5 302 23.7
2011-09-20 11:32:54 51°25.992 2°48.511 281 2.1 275 23.4
2011-09-20 11:33:54 51°25.984 2°48.448 240.9 2.9 243 23.3
2011-09-20 11:34:54 51°25.926 2°48.366 205.2 6.2 210 23.1
2011-09-20 11:35:54 51°25.783 2°48.251 204.2 11.8 206 23
2011-09-20 11:36:54 51°25.599 2°48.096 205.7 12.6 209 23.1
2011-09-20 11:37:54 51°25.418 2°47.92 208.6 12.7 211 26
2011-09-20 11:38:54 51°25.233 2°47.757 203.8 12.9 208 27.3
2011-09-20 11:39:54 51°25.048 2°47.586 208.4 12.7 212 28.3
2011-09-20 11:40:54 51°24.87 2°47.423 205.8 12.4 210 29.4
2011-09-20 11:41:54 51°24.708 2°47.214 223.2 12.6 226 29.8
2011-09-20 11:42:54 51°24.56 2°46.97 223.4 12.9 225 29.9
2011-09-20 11:43:54 51°24.408 2°46.734 221.4 12.6 223 29.1
2011-09-20 11:44:54 51°24.249 2°46.509 217.2 12.5 221 27.9
2011-09-20 11:45:54 51°24.117 2°46.25 237.4 12.8 240 29.7
2011-09-20 11:46:54 51°24.046 2°45.933 252.7 12.7 253 26.3
2011-09-20 11:47:54 51°23.981 2°45.609 252.4 12.9 253 26.7
2011-09-20 11:48:54 51°23.918 2°45.281 254.1 12.9 255 27.1
2011-09-20 11:49:54 51°23.864 2°44.947 255.3 12.9 255 26.9
2011-09-20 11:50:54 51°23.809 2°44.615 256.8 13 257 26.7
2011-09-20 11:51:54 51°23.749 2°44.286 250.1 12.9 250 26.2
2011-09-20 11:52:54 51°23.673 2°43.966 248.6 12.9 250 25.7
2011-09-20 11:53:54 51°23.607 2°43.64 253 12.7 253 26.8
2011-09-20 11:54:54 51°23.54 2°43.322 248.8 12.6 249 25.7
2011-09-20 11:55:54 51°23.464 2°43.006 249.7 12.9 250 26.3
2011-09-20 11:56:54 51°23.39 2°42.689 249.8 12.7 250 26.1
2011-09-20 11:57:54 51°23.323 2°42.368 251.8 12.8 252 27.7
2011-09-20 11:58:54 51°23.256 2°42.046 250.5 12.7 251 27.5
2011-09-20 11:59:54 51°23.189 2°41.725 252 12.5 253 28.5
2011-09-20 12:00:54 51°23.117 2°41.411 247.6 12.7 247 27.6
2011-09-20 12:01:54 51°23.036 2°41.096 245.3 12.9 246 28.7
2011-09-20 12:02:54 51°22.934 2°40.803 236.6 12.6 237 29.6
2011-09-20 12:03:54 51°22.814 2°40.536 234.4 12.6 236 28.6
2011-09-20 12:04:54 51°22.694 2°40.259 234.9 12.8 237 29.5
2011-09-20 12:05:54 51°22.578 2°39.976 237.1 12.7 239 29
2011-09-20 12:06:54 51°22.468 2°39.692 236.7 12.3 239 28.2
2011-09-20 12:07:54 51°22.356 2°39.409 235.6 12.6 236 28.2
2011-09-20 12:08:54 51°22.233 2°39.137 233.3 12.7 234 28.7
2011-09-20 12:09:54 51°22.113 2°38.86 235.8 12.7 237 28.7
2011-09-20 12:10:54 51°22.002 2°38.577 236.5 12.6 238 28.2
2011-09-20 12:11:54 51°21.884 2°38.301 233 12.3 233 28
2011-09-20 12:12:54 51°21.77 2°38.019 237.7 12.7 239 27
2011-09-20 12:13:54 51°21.657 2°37.733 237.4 12.8 238 26.1
2011-09-20 12:14:54 51°21.549 2°37.443 243 12.5 244 25.6
2011-09-20 12:15:54 51°21.484 2°37.126 255.2 12.7 254 26.3
2011-09-20 12:16:54 51°21.42 2°36.811 250.9 12.5 251 28.3
2011-09-20 12:17:54 51°21.344 2°36.499 248 12.5 247 28.4
2011-09-20 12:18:54 51°21.269 2°36.193 248.4 12.4 248 29.2
2011-09-20 12:19:54 51°21.194 2°35.88 249.3 12.7 249 32.3
2011-09-20 12:20:54 51°21.122 2°35.565 250 12.7 250 31.3
2011-09-20 12:21:54 51°21.046 2°35.25 248.3 12.7 248 29.3
2011-09-20 12:22:54 51°20.967 2°34.931 249.3 13 250 31.4
2011-09-20 12:23:54 51°20.897 2°34.608 251.3 12.9 251 31.4
2011-09-20 12:24:54 51°20.824 2°34.288 248.8 12.8 248 31.6
2011-09-20 12:25:54 51°20.742 2°33.975 248.2 12.7 248 30.9
2011-09-20 12:26:54 51°20.672 2°33.655 251.1 12.7 251 30.2
2011-09-20 12:27:54 51°20.592 2°33.342 247.9 12.8 247 30.3
2011-09-20 12:28:54 51°20.511 2°33.031 249.5 12.8 249 30.5
2011-09-20 12:29:54 51°20.442 2°32.713 250.9 12.7 251 30.1
2011-09-20 12:30:54 51°20.366 2°32.396 248.4 12.7 247 30.4
2011-09-20 12:31:54 51°20.282 2°32.083 248.3 12.8 248 30.4
2011-09-20 12:32:54 51°20.208 2°31.766 249.9 12.8 250 29.1
2011-09-20 12:33:54 51°20.136 2°31.447 252.4 12.8 253 24.7
2011-09-20 12:34:54 51°20.071 2°31.123 252.7 12.9 252 21.3
2011-09-20 12:35:54 51°20.015 2°30.799 257.5 12.6 256 17.3
2011-09-20 12:36:54 51°19.987 2°30.472 270.1 12.4 270 14.4
2011-09-20 12:37:54 51°19.982 2°30.159 267.4 9.9 268 12.8
2011-09-20 12:38:54 51°19.983 2°29.975 278.1 4.8 283 13
2011-09-20 12:39:54 51°20.006 2°29.913 316.3 1.1 327 13.8
2011-09-20 12:40:54 51°20.013 2°29.912 338.2 0.5 26 13.6
2011-09-20 12:41:54 51°20.019 2°29.912 341.7 0.4 344 12.6
2011-09-20 12:42:54 51°20.025 2°29.914 341.2 0.3 343 11.6
2011-09-20 12:43:54 51°20.032 2°29.916 336.9 0.5 3 11.4
2011-09-20 12:44:54 51°20.039 2°29.916 332.5 0.4 342 12.1
2011-09-20 12:45:54 51°20.047 2°29.914 327.9 0.4 335 13.1
2011-09-20 12:46:54 51°20.054 2°29.915 328.7 0.4 1 13.9
2011-09-20 12:47:54 51°20.088 2°29.901 353.6 3.4 357 17
2011-09-20 12:48:54 51°20.147 2°29.954 58.4 4.8 62 17
2011-09-20 12:49:54 51°20.128 2°30.094 119.1 7 117 14.9
2011-09-20 12:50:54 51°20.029 2°30.295 126.6 11.1 133 11.8
2011-09-20 12:51:54 51°19.896 2°30.523 129.9 11.9 136 15.9
2011-09-20 12:52:54 51°19.762 2°30.761 125.5 12.2 127 19.5
2011-09-20 12:53:54 51°19.632 2°31.003 124.7 12 130 25.6
2011-09-20 12:54:54 51°19.498 2°31.243 127.4 11.9 132 29.9
2011-09-20 12:55:54 51°19.368 2°31.487 124.9 12.1 130 30.1
2011-09-20 12:56:54 51°19.234 2°31.728 127.3 11.9 129 30.4
2011-09-20 12:57:54 51°19.101 2°31.971 126.4 12.2 132 30.3
2011-09-20 12:58:54 51°18.967 2°32.212 128 12.2 128 30.7
2011-09-20 12:59:54 51°18.834 2°32.454 128 12.2 138 29.5
2011-09-20 13:00:54 51°18.704 2°32.701 126 12.2 134 28.4
2011-09-20 13:01:54 51°18.573 2°32.95 126.9 12.2 127 25.3
2011-09-20 13:02:54 51°18.446 2°33.203 125.2 12.2 125 21.6
2011-09-20 13:03:54 51°18.317 2°33.453 126.9 12 135 19.3
2011-09-20 13:04:54 51°18.186 2°33.698 125.8 12.1 130 23.6
2011-09-20 13:05:54 51°18.059 2°33.948 127 12.1 129 27.1
2011-09-20 13:06:54 51°17.93 2°34.192 125.5 12.1 128 28.7
2011-09-20 13:07:54 51°17.8 2°34.439 127.4 12.3 131 25
2011-09-20 13:08:54 51°17.672 2°34.686 127.5 12.2 129 20.5
2011-09-20 13:09:54 51°17.546 2°34.934 127 12.1 129 14.8
2011-09-20 13:10:54 51°17.417 2°35.181 127 12.3 126 13.3
2011-09-20 13:11:54 51°17.291 2°35.433 127.7 12.1 132 12
2011-09-20 13:12:54 51°17.161 2°35.683 125.6 12.3 129 15.6
2011-09-20 13:13:54 51°17.031 2°35.935 125.3 12.4 131 22.7
2011-09-20 13:14:54 51°16.897 2°36.184 127.3 12.3 133 27.4
2011-09-20 13:15:54 51°16.762 2°36.428 130.7 12.4 136 26.6
2011-09-20 13:16:54 51°16.62 2°36.625 135.1 9.9 139 26.6
2011-09-20 13:17:54 51°16.54 2°36.76 104.3 4.6 105 26.7
2011-09-20 13:18:54 51°16.56 2°36.838 31 2.9 31 27
2011-09-20 13:19:54 51°16.596 2°36.836 338.9 0.7 330 26.7
2011-09-20 13:20:54 51°16.6 2°36.83 317.6 0.2 341 26.5
2011-09-20 13:21:54 51°16.602 2°36.832 318.7 0.2 45 26.7
2011-09-20 13:22:54 51°16.602 2°36.838 320.5 0.3 86 26.6
2011-09-20 13:23:54 51°16.601 2°36.846 326.3 0.2 82 26.8
2011-09-20 13:24:54 51°16.599 2°36.853 326.6 0.2 103 26.8
2011-09-20 13:25:54 51°16.61 2°36.844 307.1 1.8 302 26.9
2011-09-20 13:26:54 51°16.612 2°36.772 252.1 3.3 251 26.9
2011-09-20 13:27:54 51°16.556 2°36.725 178.6 6.4 181 27
2011-09-20 13:28:54 51°16.421 2°36.719 187 8.1 190 27.5
2011-09-20 13:29:54 51°16.344 2°36.65 240.1 4.1 240 28.4
2011-09-20 13:30:54 51°16.315 2°36.534 244.6 5.4 244 28.1
2011-09-20 13:31:54 51°16.265 2°36.403 238.2 5.8 239 28.1
2011-09-20 13:32:54 51°16.224 2°36.286 240.7 4.6 242 27.9
2011-09-20 13:33:54 51°16.186 2°36.18 240.5 4.5 240 27.3
2011-09-20 13:34:54 51°16.153 2°36.079 242.9 4.3 242 27.4
2011-09-20 13:35:54 51°16.122 2°35.97 245.4 4.6 246 27.5
2011-09-20 13:36:54 51°16.085 2°35.857 240 4.9 241 27.2
2011-09-20 13:37:54 51°16.037 2°35.734 234.9 7.3 234 27.4
2011-09-20 13:38:54 51°15.906 2°35.613 192.1 10 192 27.4
2011-09-20 13:39:54 51°15.723 2°35.675 155.7 12.1 160 27.2
2011-09-20 13:40:54 51°15.536 2°35.813 153.4 12.4 154 26.5
2011-09-20 13:41:54 51°15.349 2°35.948 152.9 12.4 156 20.2
2011-09-20 13:42:54 51°15.161 2°36.085 154.8 12.3 155 17.5
2011-09-20 13:43:54 51°14.974 2°36.221 153.5 12.5 155 16.8
2011-09-20 13:44:54 51°14.791 2°36.367 153.4 12.4 155 14.3
2011-09-20 13:45:54 51°14.609 2°36.509 153.6 12.3 153 12.5
2011-09-20 13:46:54 51°14.423 2°36.645 155.3 12.4 155 11.7
2011-09-20 13:47:54 51°14.237 2°36.781 154 12.2 153 12.3
2011-09-20 13:48:54 51°14.056 2°36.929 151.9 12.3 152 17
2011-09-20 13:49:54 51°13.871 2°37.067 154.7 12.3 158 21.3
2011-09-20 13:50:54 51°13.685 2°37.2 154.5 12.3 155 19.4
2011-09-20 13:51:54 51°13.495 2°37.306 169.2 12 170 9.8
2011-09-20 13:52:54 51°13.295 2°37.352 171.2 12.2 173 10.3
2011-09-20 13:53:54 51°13.092 2°37.379 181.2 12.2 183 10.6
2011-09-20 13:54:54 51°12.892 2°37.359 186.9 12 187 11.5
2011-09-20 13:55:54 51°12.696 2°37.284 197.3 12.1 197 11.9
2011-09-20 13:56:54 51°12.504 2°37.193 194 11.9 194 11.8
2011-09-20 13:57:54 51°12.31 2°37.107 197.2 12.1 196 11.6
2011-09-20 13:58:54 51°12.113 2°37.035 196.1 12 196 11.8
2011-09-20 13:59:54 51°11.917 2°36.965 192.4 12.1 192 12.2
2011-09-20 14:00:54 51°11.725 2°36.88 198.4 12.1 198 12.5
2011-09-20 14:01:54 51°11.531 2°36.791 197.6 11.9 197 13
2011-09-20 14:02:54 51°11.339 2°36.699 195.9 12.1 195 13.5
2011-09-20 14:03:54 51°11.143 2°36.627 193.2 12.1 194 13.4
2011-09-20 14:04:54 51°10.95 2°36.537 196 12 194 13.4
2011-09-20 14:05:54 51°10.754 2°36.472 192.4 12 192 12.5
2011-09-20 14:06:54 51°10.56 2°36.396 189.9 12 187 11.8
2011-09-20 14:07:54 51°10.36 2°36.394 179 12.1 177 12
2011-09-20 14:08:54 51°10.196 2°36.561 127.6 12.2 123 18.5
2011-09-20 14:09:54 51°10.176 2°36.888 83.5 12.9 82 19.1
2011-09-20 14:10:54 51°10.23 2°37.224 75.5 13.2 75 19.3
2011-09-20 14:11:54 51°10.292 2°37.554 74.5 13.1 74 19.2
2011-09-20 14:12:54 51°10.346 2°37.887 74.1 13 72 19.2
2011-09-20 14:13:54 51°10.391 2°38.224 82.1 12.8 81 18.7
2011-09-20 14:14:54 51°10.426 2°38.563 84 12.8 83 18.1
2011-09-20 14:15:54 51°10.468 2°38.896 73.5 12.6 71 17.5
2011-09-20 14:16:54 51°10.522 2°39.226 75.6 13.1 75 16.7
2011-09-20 14:17:54 51°10.567 2°39.559 81 12.8 81 16.4
2011-09-20 14:18:54 51°10.601 2°39.894 80.5 12.9 80 15.9
2011-09-20 14:19:54 51°10.644 2°40.226 75.2 12.9 75 15.2
2011-09-20 14:20:54 51°10.687 2°40.562 78.7 12.8 79 14.6
2011-09-20 14:21:54 51°10.732 2°40.897 76.3 12.9 76 14.1
2011-09-20 14:22:54 51°10.779 2°41.235 76.9 13.1 77 14
2011-09-20 14:23:54 51°10.826 2°41.572 79.1 12.7 79 14
2011-09-20 14:24:54 51°10.854 2°41.814 80.7 7.9 79 14.3
2011-09-20 14:25:54 51°10.899 2°41.987 52.1 6.5 53 14.3
2011-09-20 14:26:54 51°10.984 2°42.044 2.7 5.8 10 14.2
2011-09-20 14:27:54 51°11.075 2°42.044 334.5 4.1 349 13.9
2011-09-20 14:28:54 51°11.107 2°42.044 300.1 1 37 14
2011-09-20 14:29:54 51°11.12 2°42.064 287.3 1.1 50 13.8
2011-09-20 14:30:54 51°11.132 2°42.09 287.6 1.4 53 13.8
2011-09-20 14:31:54 51°11.144 2°42.121 300.6 1.4 62 14
2011-09-20 14:32:54 51°11.156 2°42.154 311.7 1.5 60 14.1
2011-09-20 14:33:54 51°11.176 2°42.176 335.6 2.4 5 13.8
2011-09-20 14:34:54 51°11.246 2°42.244 42.9 8.1 48 13.4
2011-09-20 14:35:54 51°11.364 2°42.478 52.2 13 52 13.2
2011-09-20 14:36:54 51°11.445 2°42.801 75.2 13.5 75 13
2011-09-20 14:37:54 51°11.493 2°43.146 77.1 13.4 77 13.1
2011-09-20 14:38:54 51°11.55 2°43.49 74.2 13.6 72 13.4
2011-09-20 14:39:54 51°11.597 2°43.837 84.5 13.5 84 13.7
2011-09-20 14:40:54 51°11.618 2°44.191 83.9 13.4 82 14.1
2011-09-20 14:41:54 51°11.655 2°44.544 79.4 13.7 78 14.4
2011-09-20 14:42:54 51°11.698 2°44.896 80.4 13.6 78 14.7
2011-09-20 14:43:54 51°11.751 2°45.244 80.4 13.5 79 14.8
2011-09-20 14:44:54 51°11.795 2°45.595 78.8 13.6 77 14.7
2011-09-20 14:45:54 51°11.856 2°45.94 76.1 13.7 76 14.7
2011-09-20 14:46:54 51°11.912 2°46.284 73.9 13.4 72 14.8
2011-09-20 14:47:54 51°12 2°46.613 67.3 13.6 67 14.8
2011-09-20 14:48:54 51°12.091 2°46.941 68.3 13.6 67 14.7
2011-09-20 14:49:54 51°12.177 2°47.273 67.3 13.6 65 14.6
2011-09-20 14:50:54 51°12.251 2°47.613 73.9 13.5 73 14.4
2011-09-20 14:51:54 51°12.339 2°47.943 65 13.5 65 14.3
2011-09-20 14:52:54 51°12.435 2°48.268 68.3 13.5 68 14.2
2011-09-20 14:53:54 51°12.517 2°48.602 69.9 13.5 69 14.1
2011-09-20 14:54:54 51°12.611 2°48.931 64.5 13.6 62 13.8
2011-09-20 14:55:54 51°12.709 2°49.256 67.6 13.6 68 13.6
2011-09-20 14:56:54 51°12.8 2°49.587 65.8 13.7 64 13.6
2011-09-20 14:57:54 51°12.915 2°49.899 57.9 13.7 58 13.5
2011-09-20 14:58:54 51°13.034 2°50.208 61.1 13.6 62 13.2
2011-09-20 14:59:54 51°13.14 2°50.526 61.8 13.4 64 12.8
2011-09-20 15:00:54 51°13.246 2°50.845 63.2 13.7 61 12.8
2011-09-20 15:01:54 51°13.361 2°51.157 59.6 13.7 58 12.9
2011-09-20 15:02:54 51°13.474 2°51.471 64 13.4 64 12.4
2011-09-20 15:03:54 51°13.574 2°51.796 66.1 13.7 66 12.7
2011-09-20 15:04:54 51°13.673 2°52.117 61.7 13.6 60 12.4
2011-09-20 15:05:54 51°13.776 2°52.44 66.2 13.7 64 12.2
2011-09-20 15:06:54 51°13.878 2°52.764 63.6 13.8 61 11.9
2011-09-20 15:07:54 51°14.001 2°53.07 54.5 13.7 54 11.7
2011-09-20 15:08:54 51°14.132 2°53.369 56.4 13.7 57 11.7
2011-09-20 15:09:54 51°14.258 2°53.672 57.4 13.7 56 11.5
2011-09-20 15:10:54 51°14.377 2°53.951 58.2 12.5 57 11.5
2011-09-20 15:11:54 51°14.466 2°54.177 62.2 7.7 59 11.7
2011-09-20 15:12:54 51°14.514 2°54.326 67.4 5.4 63 12
2011-09-20 15:13:54 51°14.55 2°54.437 70.9 4.4 62 12.2
2011-09-20 15:14:54 51°14.602 2°54.529 15.8 4.9 25 12.2
2011-09-20 15:15:54 51°14.688 2°54.537 335.2 5.3 351 12.6
2011-09-20 15:16:54 51°14.775 2°54.49 321.3 5.5 336 13.1
2011-09-20 15:17:54 51°14.853 2°54.431 313.9 4.9 331 12.8
2011-09-20 15:18:54 51°14.925 2°54.334 305.7 6.7 319 11.5
2011-09-20 15:19:54 51°15.02 2°54.364 42.3 6 50 13.2
2011-09-20 15:20:54 51°15.031 2°54.497 120.9 4.9 111 13
2011-09-20 15:21:54 51°14.981 2°54.605 150.3 4.9 133 12.5
2011-09-20 15:22:54 51°14.938 2°54.686 154.3 4.6 133 11.7
2011-09-20 15:23:54 51°14.846 2°54.803 154.6 8.4 144 12.1
2011-09-20 15:24:54 51°14.715 2°54.94 157 10.2 147 12
2011-09-20 15:25:54 51°14.558 2°55.067 164.4 10.8 159 13.4
2011-09-20 15:26:54 51°14.39 2°55.19 149.8 11.4 150 12.9
2011-09-20 15:27:55 51°14.225 2°55.335 150.3 10.2 153 13.1
2011-09-20 15:28:54 51°14.101 2°55.43 153.8 7.3 155 -999
2011-09-20 15:29:54 51°13.997 2°55.506 154.7 6.6 155 13.4
2011-09-20 15:30:54 51°13.901 2°55.574 156.2 6 157 13.9
2011-09-20 15:31:54 51°13.814 2°55.637 151.1 5.6 151 13.7
2011-09-20 15:32:54 51°13.746 2°55.729 131.1 5.1 132 13.7
2011-09-20 15:33:58 51°13.692 2°55.837 124.9 4.7 127 -999
2011-09-20 15:34:58 51°13.657 2°55.923 115.5 3.1 118 -999
2011-09-20 15:35:58 51°13.642 2°55.992 102.2 2.2 102 -999